Latest Coastal Weather Observations for Lord Howe Island

IDN60701

Issued at 2:11 pm EST Monday 16 September 2019 (issued every 10 minutes, with the page automatically refreshed every 10 minutes)

About coastal observations | Map of coastal stations | Coastal observations for NSW | Marine services | Other Formats
Station Details ID: 200839 Name: LORD HOWE ISLAND AERO Lat: -31.54 Lon: 159.08 Height: 5.0 m
Data from the previous 72 hours. | See also: Recent months at Lord Howe Island

Observations are collected in the New South Wales time zone (Eastern Standard Time) which includes daylight savings in the summer period. Therefore 'Rain since 9am' totals and other values are based on the New South Wales time zone, which may differ from local time.

Date/Time
EST
Wind Sea
Height
m
Swell Vis
km
Cloud Weather Temp
°C
Press
hPa
Rain since
9am
mm
Dir  Spd
kts
Gust
kts
Height
m
Period
s
Dir
16/02:00pm NW 10 21 - - - - 10 Mostly clear - 19.7 1020.1 0.0
16/01:30pm WNW 10 18 - - - - 10 Mostly clear - 19.5 1020.5 0.0
16/01:00pm WNW 11 15 - - - - 10 Mostly clear - 19.5 1020.8 0.0
16/12:30pm WNW 11 18 - - - - 10 Mostly clear - 19.4 1021.2 0.0
16/12:00pm WNW 10 15 - - - - 10 Mostly clear - 19.6 1021.4 0.0
16/11:30am WNW 9 14 - - - - 10 Partly cloudy - 19.6 1021.5 0.0
16/11:00am WNW 9 15 - - - - 10 Mostly clear - 19.4 1021.8 0.0
16/10:30am WNW 8 11 - - - - 10 Mostly clear - 19.5 1022.0 0.0
16/10:00am WNW 9 13 - - - - 10 Mostly clear - 19.3 1022.2 0.0
16/09:30am NW 6 10 - - - - 10 Mostly clear - 19.1 1022.5 0.0
16/09:00am NNW 7 12 - - - - 10 Mostly clear - 19.2 1022.7 0.0
16/08:30am WNW 7 12 - - - - 10 Mostly clear - 18.8 1022.9 0.0
16/08:00am WNW 7 10 - - - - 10 Partly cloudy - 18.3 1023.2 0.0
16/07:30am WNW 6 9 - - - - 10 Partly cloudy - 18.0 1023.2 0.0
16/07:00am WNW 6 8 - - - - 10 Partly cloudy - 17.0 1023.3 0.0
16/06:30am NW 5 8 - - - - 10 Partly cloudy - 16.7 1023.0 0.0
16/06:00am WNW 2 5 - - - - 10 Partly cloudy - 15.1 1022.9 0.0
16/05:30am NW 1 3 - - - - 10 Partly cloudy - 13.8 1022.7 0.0
16/05:00am NW 2 5 - - - - 10 Partly cloudy - 13.9 1022.6 0.0
16/04:30am WSW 1 3 - - - - 10 Cloudy - 13.8 1022.7 0.0
16/04:00am CALM 0 0 - - - - 10 Partly cloudy - 13.0 1022.7 0.0
16/03:30am WSW 1 4 - - - - 10 Partly cloudy - 12.6 1022.6 0.0
16/03:00am SW 2 4 - - - - 10 Partly cloudy - 12.6 1022.5 0.0
16/02:30am CALM 0 0 - - - - 10 - - 11.6 1022.3 0.0
16/02:00am CALM 0 0 - - - - 10 - - 12.1 1022.2 0.0
16/01:30am CALM 0 0 - - - - 10 Partly cloudy - 12.0 1022.4 0.0
16/01:00am CALM 0 0 - - - - 10 Partly cloudy - 11.4 1022.5 0.0
16/12:30am CALM 0 0 - - - - 10 - - 11.3 1022.7 0.0
16/12:00am CALM 0 0 - - - - 10 Partly cloudy - 12.3 1022.7 0.0
 
Date/Time
EST
Wind Sea
Height
m
Swell Vis
km
Cloud Weather Temp
°C
Press
hPa
Rain since
9am
mm
Dir  Spd
kts
Gust
kts
Height
m
Period
s
Dir
15/11:30pm CALM 0 0 - - - - 10 Mostly clear - 12.9 1022.9 0.0
15/11:00pm CALM 0 0 - - - - 10 Cloudy - 13.8 1023.2 0.0
15/10:30pm SSW 3 4 - - - - 10 Partly cloudy - 15.5 1023.4 0.0
15/10:00pm SW 3 6 - - - - 10 Partly cloudy - 14.3 1023.3 0.0
15/09:30pm SSW 1 3 - - - - 10 Cloudy - 14.4 1023.4 0.0
15/09:00pm SSW 2 5 - - - - 10 Partly cloudy - 14.2 1023.5 0.0
15/08:30pm S 4 6 - - - - 10 Partly cloudy - 15.7 1023.3 0.0
15/08:00pm SSW 5 10 - - - - 10 Partly cloudy - 16.5 1023.2 0.0
15/07:30pm SSW 6 9 - - - - 10 Partly cloudy - 16.7 1023.4 0.0
15/07:00pm SSW 6 9 - - - - 10 Partly cloudy - 17.0 1023.1 0.0
15/06:30pm SSW 7 11 - - - - 10 Partly cloudy - 16.9 1023.0 0.0
15/06:00pm SSW 7 11 - - - - 10 Partly cloudy - 16.8 1022.4 0.0
15/05:30pm SSW 8 12 - - - - 10 Mostly cloudy - 16.9 1022.2 0.0
15/05:00pm SW 7 10 - - - - 10 Partly cloudy - 16.9 1021.9 0.0
15/04:30pm SW 7 10 - - - - 10 Partly cloudy - 17.3 1021.5 0.0
15/04:00pm SW 9 12 - - - - 10 - - 17.8 1021.1 0.0
15/03:30pm SW 10 15 - - - - 10 - - 18.1 1021.2 0.0
15/03:00pm SW 9 15 - - - - 10 Partly cloudy - 18.2 1021.0 0.0
15/02:30pm SW 10 15 - - - - 10 - - 18.3 1020.8 0.0
15/02:00pm SW 11 15 - - - - 10 - - 18.4 1020.9 0.0
15/01:30pm SW 11 17 - - - - 10 - - 18.6 1021.1 0.0
15/01:00pm SW 12 17 - - - - 10 - - 18.5 1021.3 0.0
15/12:30pm SW 11 16 - - - - 10 Partly cloudy - 18.6 1021.4 0.0
15/12:00pm SW 11 17 - - - - 10 - - 18.5 1021.5 0.0
15/11:30am SW 11 18 - - - - 10 Mostly clear - 18.3 1021.5 0.0
15/11:00am SW 11 16 - - - - 10 Partly cloudy - 18.1 1021.7 0.0
15/10:30am SW 11 17 - - - - 10 Partly cloudy - 18.0 1021.8 0.0
15/10:00am SW 11 16 - - - - 10 - - 18.3 1021.7 0.0
15/09:30am SW 11 19 - - - - 10 Partly cloudy - 18.1 1021.7 0.0
15/09:00am SW 12 19 - - - - 10 Partly cloudy - 18.3 1021.7 0.0
15/08:30am SW 12 17 - - - - 10 Mostly clear - 18.0 1021.6 0.2
15/08:00am SW 12 19 - - - - 10 Partly cloudy - 17.8 1021.5 0.2
15/07:30am SW 13 20 - - - - 10 - - 17.5 1021.3 0.2
15/07:00am SW 12 18 - - - - 10 Partly cloudy - 17.4 1020.9 0.2
15/06:30am SW 12 18 - - - - 10 Partly cloudy - 16.9 1020.5 0.2
15/06:00am SW 11 19 - - - - 10 Partly cloudy - 16.6 1020.1 0.2
15/05:30am SW 11 17 - - - - 18 Mostly clear Fine 16.3 1019.7 0.2
15/05:00am SW 12 18 - - - - 10 Partly cloudy - 16.5 1019.3 0.2
15/04:30am SW 12 18 - - - - 10 Partly cloudy - 16.6 1019.0 0.2
15/04:00am SW 13 20 - - - - 10 Partly cloudy - 16.6 1018.7 0.2
15/03:30am SW 12 19 - - - - 10 Partly cloudy - 16.6 1018.7 0.2
15/03:00am SW 12 17 - - - - 10 Partly cloudy - 16.6 1018.5 0.2
15/02:30am SW 11 16 - - - - 10 Mostly clear - 16.4 1018.3 0.2
15/02:00am SW 12 21 - - - - 10 Partly cloudy - 16.4 1018.4 0.2
15/01:30am SW 12 18 - - - - 10 Partly cloudy - 16.4 1018.6 0.2
15/01:00am SW 13 18 - - - - 10 Partly cloudy - 16.5 1018.8 0.2
15/12:30am SW 14 20 - - - - 10 Partly cloudy - 16.6 1019.0 0.2
15/12:00am SW 13 20 - - - - 10 Partly cloudy - 16.8 1019.0 0.2
 
Date/Time
EST
Wind Sea
Height
m
Swell Vis
km
Cloud Weather Temp
°C
Press
hPa
Rain since
9am
mm
Dir  Spd
kts
Gust
kts
Height
m
Period
s
Dir
14/11:30pm SW 12 21 - - - - 10 Mostly clear - 16.8 1019.0 0.2
14/11:00pm SW 12 17 - - - - 10 Partly cloudy - 16.9 1019.1 0.2
14/10:30pm SW 10 16 - - - - 10 Partly cloudy - 16.8 1019.1 0.2
14/10:00pm SW 11 16 - - - - 10 - - 16.8 1019.2 0.2
14/09:30pm SW 10 16 - - - - 10 Partly cloudy - 17.0 1019.4 0.2
14/09:00pm SW 11 17 - - - - 10 Partly cloudy - 17.2 1019.5 0.2
14/08:30pm SW 9 17 - - - - 10 Partly cloudy - 17.0 1019.4 0.2
14/08:00pm SW 10 15 - - - - 10 Partly cloudy - 16.9 1019.3 0.2
14/07:30pm SW 9 14 - - - - 10 Partly cloudy - 16.7 1019.1 0.2
14/07:00pm SW 9 14 - - - - 10 Partly cloudy - 16.7 1018.6 0.2
14/06:30pm SSW 11 20 - - - - 10 Partly cloudy - 16.8 1018.4 0.2
14/06:00pm SW 8 14 - - - - 10 Partly cloudy - 16.5 1018.2 0.2
14/05:30pm SW 8 12 - - - - 10 Cloudy Rain 16.4 1018.0 0.2
14/05:00pm SSW 12 18 - - - - 10 Partly cloudy - 16.1 1017.7 0.2
14/04:30pm SW 14 21 - - - - 9 Partly cloudy - 16.4 1017.3 0.2
14/04:00pm WSW 13 19 - - - - 10 Partly cloudy - 18.4 1017.0 0.2
14/03:30pm WSW 14 19 - - - - 10 Partly cloudy - 18.8 1016.8 0.2
14/03:00pm WSW 15 19 - - - - 10 Partly cloudy - 18.8 1016.7 0.2
14/02:30pm WSW 13 18 - - - - 30 Mostly clear Fine 18.8 1016.8 0.2
14/02:00pm WSW 13 19 - - - - 10 Partly cloudy - 18.8 1017.0 0.2
14/01:30pm WSW 16 21 - - - - 10 Partly cloudy - 18.7 1017.1 0.2
14/01:00pm WSW 15 19 - - - - 10 Partly cloudy - 18.8 1017.1 0.2
14/12:30pm WSW 15 20 - - - - 10 Partly cloudy - 18.6 1017.6 0.2
14/12:00pm WSW 14 19 - - - - 10 Partly cloudy - 18.5 1018.0 0.2
14/11:30am WSW 16 21 - - - - 10 Partly cloudy - 18.6 1018.3 0.2
14/11:00am WSW 14 17 - - - - 10 Partly cloudy - 19.2 1018.5 0.2
14/10:30am WSW 16 18 - - - - 10 Partly cloudy - 18.9 1018.8 0.2
14/10:00am WSW 15 19 - - - - 10 Partly cloudy - 18.8 1019.1 0.2
14/09:30am WSW 14 18 - - - - 10 Partly cloudy - 18.6 1019.3 0.2
14/09:00am WSW 11 15 - - - - 10 Partly cloudy - 18.4 1019.2 0.0
14/08:30am WSW 9 11 - - - - 25 Partly cloudy Fine 18.1 1019.2 3.4
14/08:00am WSW 9 12 - - - - 10 Partly cloudy - 17.6 1019.2 3.4
14/07:30am WSW 10 13 - - - - 10 Partly cloudy - 17.4 1019.1 3.4
14/07:00am WSW 8 13 - - - - 10 Partly cloudy - 17.2 1018.7 3.4
14/06:30am WSW 9 13 - - - - 10 Partly cloudy - 16.9 1018.6 3.4
14/06:00am WSW 11 15 - - - - 10 Partly cloudy - 16.7 1018.4 3.4
14/05:30am WSW 14 18 - - - - 20 Partly cloudy Fine 16.7 1018.3 3.4
14/05:00am WSW 12 15 - - - - 10 Partly cloudy - 16.8 1017.9 3.4
14/04:30am WSW 9 13 - - - - 10 - - 16.7 1017.8 3.4
14/04:00am WSW 8 12 - - - - 10 - - 16.7 1017.5 3.4
14/03:30am WSW 6 9 - - - - 10 - - 16.6 1017.5 3.4
14/03:00am WSW 8 11 - - - - 10 - - 16.6 1017.9 3.4
14/02:30am WSW 8 12 - - - - 10 Partly cloudy - 16.6 1018.2 3.4
14/02:00am WSW 8 11 - - - - 10 Partly cloudy - 16.5 1018.4 3.4
14/01:30am SW 6 9 - - - - 10 Partly cloudy - 16.6 1018.7 3.4
14/01:00am WSW 8 12 - - - - 10 - - 16.8 1019.1 3.4
14/12:30am WSW 9 13 - - - - 10 - - 17.0 1019.4 3.4
14/12:00am SW 9 13 - - - - 10 Partly cloudy - 17.0 1019.5 3.4
 
Date/Time
EST
Wind Sea
Height
m
Swell Vis
km
Cloud Weather Temp
°C
Press
hPa
Rain since
9am
mm
Dir  Spd
kts
Gust
kts
Height
m
Period
s
Dir
13/11:30pm SW 10 15 - - - - 10 Partly cloudy - 17.2 1019.6 3.4
13/11:00pm SW 11 18 - - - - 10 Partly cloudy - 17.2 1019.8 3.4
13/10:30pm SW 9 13 - - - - 10 Partly cloudy - 17.2 1019.9 3.4
13/10:00pm SW 8 13 - - - - 10 Partly cloudy - 17.1 1019.9 3.4
13/09:30pm SW 9 14 - - - - 10 Partly cloudy - 17.1 1019.8 3.4
13/09:00pm SW 8 13 - - - - 10 Partly cloudy - 17.3 1019.9 3.4
13/08:30pm SSW 9 13 - - - - 10 Cloudy - 17.3 1019.7 3.4
13/08:00pm SW 9 13 - - - - 10 Partly cloudy - 17.4 1019.7 3.4
13/07:30pm SW 10 15 - - - - 10 - - 17.6 1019.9 3.4
13/07:00pm SW 10 14 - - - - 10 Partly cloudy - 17.8 1019.7 3.4
13/06:30pm SW 8 12 - - - - 10 Partly cloudy - 17.6 1019.5 3.4
13/06:00pm SW 7 10 - - - - 10 - - 17.6 1019.1 3.4
13/05:30pm SW 9 13 - - - - 10 - - 17.4 1018.8 3.4
13/05:00pm SW 7 11 - - - - 10 - - 17.5 1018.2 3.4
13/04:30pm WSW 7 10 - - - - 10 - - 17.7 1018.1 3.4
13/04:00pm WSW 8 10 - - - - 10 - - 18.0 1017.9 3.4
13/03:30pm W 10 12 - - - - 10 Partly cloudy - 18.5 1017.8 3.4
13/03:00pm WNW 7 9 - - - - 10 Partly cloudy - 17.3 1017.6 3.4
13/02:46pm WNW 9 12 - - - - 10 Partly cloudy - 17.2 1017.5 3.4
13/02:30pm W 10 13 - - - - 10 Cloudy - 17.0 1017.6 3.4
13/02:00pm WSW 6 9 - - - - 10 Cloudy - 16.9 1017.6 3.4

Other formats

Comma delimited format used in spreadsheet applications
http://www.bom.gov.au/fwo/IDN60701/IDN60701.94995.axf

JavaScript Object Notation format (JSON) in row-major order
http://www.bom.gov.au/fwo/IDN60701/IDN60701.94995.json

Data quality

Most of these data are generated automatically and are frequently updated. Quality checks on data are not normally performed. It is possible for incorrect values to appear. Refer to information at About Latest Weather Observations and please check the disclaimer before using these data.